Time;durP1;ratioP1;P1;durP2;ratioP2;P2;SDS_P1;SDS_P2;PMS_P1;PMS_P2;Temp;Humidity;BMP_temperature;BMP_pressure;BME280_temperature;BME280_humidity;BME280_pressure;Samples;Min_cycle;Max_cycle;Signal;HPM_P1;HPM_P2
2021/10/30 00:00:31;;;;;;;36.73;28.50;;;8.50;99.90;;;8.92;100.00;99782.44;5051828;28;20388;-65
2021/10/30 00:02:59;;;;;;;34.10;28.30;;;8.40;99.90;;;8.94;100.00;99772.31;5051953;28;20197;-65
2021/10/30 00:05:28;;;;;;;34.73;27.93;;;8.30;99.90;;;8.87;100.00;99783.13;5052017;28;20201;-65
2021/10/30 00:07:56;;;;;;;35.53;28.87;;;8.40;99.90;;;9.04;100.00;99781.53;5051613;28;20257;-66
2021/10/30 00:10:23;;;;;;;34.47;27.43;;;8.30;99.90;;;9.11;100.00;99776.09;5051606;28;20281;-65
2021/10/30 00:12:52;;;;;;;36.80;28.57;;;8.40;99.90;;;9.21;100.00;99777.25;5051408;28;20197;-64
2021/10/30 00:15:19;;;;;;;34.67;26.77;;;8.50;99.90;;;8.96;100.00;99772.94;5051603;28;20202;-65
2021/10/30 00:17:49;;;;;;;33.23;26.30;;;8.50;99.90;;;8.86;100.00;99773.44;5052169;28;20288;-65
2021/10/30 00:20:17;;;;;;;36.53;28.40;;;8.40;99.90;;;8.87;100.00;99779.59;5051578;28;20680;-65
2021/10/30 00:22:45;;;;;;;32.63;26.73;;;8.30;99.90;;;8.78;100.00;99779.03;5051884;28;20229;-65
2021/10/30 00:25:13;;;;;;;34.03;26.90;;;8.30;99.90;;;8.71;100.00;99782.81;5051754;28;20590;-65
2021/10/30 00:27:42;;;;;;;37.10;29.03;;;8.30;99.90;;;8.76;100.00;99783.00;5051688;28;20288;-67
2021/10/30 00:30:10;;;;;;;36.90;28.20;;;8.20;99.90;;;8.64;100.00;99785.56;5051731;28;20240;-64
2021/10/30 00:32:38;;;;;;;36.33;29.10;;;8.20;99.90;;;8.57;100.00;99790.13;5051378;28;20252;-65
2021/10/30 00:35:09;;;;;;;33.43;27.13;;;8.10;99.90;;;8.46;100.00;99793.50;5051445;28;20243;-66
2021/10/30 00:37:37;;;;;;;35.93;27.90;;;8.10;99.90;;;8.47;100.00;99789.78;5051258;28;20702;-65
2021/10/30 00:40:11;;;;;;;35.73;28.70;;;8.00;99.90;;;8.46;100.00;99788.13;5051953;28;20220;-67
2021/10/30 00:42:39;;;;;;;34.00;27.17;;;8.00;99.90;;;8.38;100.00;99786.53;5051145;28;20285;-65
2021/10/30 00:45:09;;;;;;;34.77;27.67;;;7.90;99.90;;;8.36;100.00;99782.41;5054201;28;20240;-67
2021/10/30 00:47:37;;;;;;;39.93;30.03;;;7.90;99.90;;;8.39;100.00;99790.00;5055756;28;20281;-66
2021/10/30 00:50:08;;;;;;;38.53;29.77;;;7.90;99.90;;;8.40;100.00;99795.19;5055448;28;20236;-66
2021/10/30 00:52:40;;;;;;;34.40;27.50;;;7.80;99.90;;;8.55;100.00;99786.84;5055619;28;20268;-64
2021/10/30 00:55:10;;;;;;;36.97;28.53;;;7.90;99.90;;;8.40;100.00;99784.47;5055435;28;20276;-66
2021/10/30 00:57:40;;;;;;;39.73;29.87;;;7.90;99.90;;;8.60;100.00;99790.53;5055016;28;20197;-66
2021/10/30 01:00:11;;;;;;;36.37;27.93;;;7.90;99.90;;;8.55;100.00;99781.47;5055281;28;20197;-66
2021/10/30 01:02:40;;;;;;;36.97;29.20;;;7.90;99.90;;;8.84;100.00;99778.19;5055592;28;20228;-66
2021/10/30 01:05:10;;;;;;;36.87;29.20;;;8.00;99.90;;;8.62;100.00;99777.69;5054986;28;20688;-66
2021/10/30 01:07:39;;;;;;;34.63;28.43;;;8.00;99.90;;;8.55;100.00;99774.25;5054689;28;20233;-65
2021/10/30 01:10:08;;;;;;;37.67;28.40;;;8.00;99.90;;;8.41;100.00;99763.78;5055034;28;20268;-67
2021/10/30 01:12:37;;;;;;;35.17;28.60;;;7.90;99.90;;;8.59;100.00;99759.34;5054404;28;20740;-66
2021/10/30 01:15:07;;;;;;;38.27;28.30;;;8.00;99.90;;;8.55;100.00;99768.88;5055007;28;20288;-66
2021/10/30 01:17:35;;;;;;;39.90;29.23;;;7.90;99.90;;;8.44;100.00;99763.34;5054939;28;20273;-65
2021/10/30 01:20:06;;;;;;;37.23;28.77;;;7.90;99.90;;;8.37;100.00;99767.97;5054581;28;20579;-66
2021/10/30 01:22:36;;;;;;;35.00;28.33;;;7.90;99.90;;;8.37;100.00;99763.41;5054704;28;20209;-66
2021/10/30 01:25:04;;;;;;;36.10;29.10;;;7.90;99.90;;;8.35;100.00;99759.28;5054670;28;20297;-65
2021/10/30 01:27:32;;;;;;;39.53;29.83;;;7.80;99.90;;;8.27;100.00;99760.34;5054379;28;20296;-65
2021/10/30 01:30:00;;;;;;;34.67;28.20;;;7.80;99.90;;;8.15;100.00;99758.56;5054607;28;20197;-65
2021/10/30 01:32:28;;;;;;;34.53;28.33;;;7.70;99.90;;;8.08;100.00;99758.59;5055070;28;20288;-66
2021/10/30 01:34:56;;;;;;;34.20;27.07;;;7.70;99.90;;;8.09;100.00;99756.69;5054675;28;20201;-67
2021/10/30 01:37:26;;;;;;;40.00;30.70;;;7.60;99.90;;;8.22;100.00;99756.66;5054536;28;20280;-65
2021/10/30 01:39:54;;;;;;;35.80;28.53;;;7.60;99.90;;;8.19;100.00;99754.38;5055055;28;20297;-65
2021/10/30 01:42:22;;;;;;;34.43;27.70;;;7.60;99.90;;;8.47;100.00;99744.97;5054255;28;20693;-65
2021/10/30 01:44:50;;;;;;;35.87;27.47;;;7.70;99.90;;;8.38;100.00;99750.81;5054881;28;20672;-65
2021/10/30 01:47:18;;;;;;;34.40;28.13;;;7.70;99.90;;;8.38;100.00;99750.81;5054014;28;20296;-65
2021/10/30 01:49:46;;;;;;;35.50;27.90;;;7.70;99.90;;;8.45;100.00;99748.91;5054170;28;20561;-65
2021/10/30 01:52:13;;;;;;;35.70;28.07;;;7.70;99.90;;;8.30;100.00;99754.56;5054369;28;20630;-65
2021/10/30 01:54:43;;;;;;;36.90;28.97;;;7.80;99.90;;;8.42;100.00;99752.84;5054320;28;20205;-64
2021/10/30 01:57:11;;;;;;;35.73;28.57;;;7.80;99.90;;;8.41;100.00;99756.56;5053671;28;20325;-66
2021/10/30 01:59:39;;;;;;;35.90;28.07;;;7.80;99.90;;;8.41;100.00;99756.56;5054170;28;20207;-66
2021/10/30 02:02:07;;;;;;;37.97;28.47;;;7.80;99.90;;;8.58;100.00;99749.66;5054033;28;20232;-65
2021/10/30 02:04:35;;;;;;;34.63;27.77;;;7.80;99.90;;;8.54;100.00;99745.75;5053902;28;20355;-65
2021/10/30 02:07:04;;;;;;;33.13;26.83;;;7.90;99.90;;;8.42;100.00;99750.16;5053584;28;20235;-65
2021/10/30 02:09:32;;;;;;;33.80;27.67;;;7.90;99.90;;;8.43;100.00;99756.34;5054145;28;20211;-64
2021/10/30 02:12:01;;;;;;;34.20;26.77;;;7.90;99.90;;;8.50;100.00;99752.59;5053915;28;20296;-65
2021/10/30 02:14:29;;;;;;;34.33;27.13;;;7.80;99.90;;;8.35;100.00;99753.94;5053869;28;20284;-67
2021/10/30 02:16:57;;;;;;;35.67;27.47;;;7.80;99.90;;;8.37;100.00;99752.66;5053690;28;20633;-66
2021/10/30 02:19:25;;;;;;;33.40;27.47;;;7.80;99.90;;;8.41;100.00;99755.75;5054029;28;20301;-65
2021/10/30 02:21:53;;;;;;;31.67;26.10;;;7.80;99.90;;;8.37;100.00;99751.84;5053802;28;20228;-65
2021/10/30 02:24:21;;;;;;;34.83;28.90;;;7.80;99.90;;;8.53;100.00;99743.28;5052742;28;20305;-65
2021/10/30 02:26:49;;;;;;;33.90;26.80;;;7.80;99.90;;;8.40;100.00;99749.56;5052153;28;20293;-66
2021/10/30 02:29:19;;;;;;;32.07;27.13;;;7.80;99.90;;;8.30;100.00;99749.19;5053409;28;20201;-65
2021/10/30 02:31:47;;;;;;;34.00;27.90;;;7.80;99.90;;;8.40;100.00;99746.06;5053236;28;20201;-65
2021/10/30 02:34:15;;;;;;;34.70;26.73;;;7.80;99.90;;;8.30;100.00;99735.78;5053458;28;20214;-65
2021/10/30 02:36:43;;;;;;;32.27;26.67;;;7.80;99.90;;;8.20;100.00;99743.44;5053397;28;20285;-65
2021/10/30 02:39:11;;;;;;;36.43;27.40;;;7.70;99.90;;;8.27;100.00;99738.09;5053003;28;20223;-66
2021/10/30 02:41:40;;;;;;;34.13;27.20;;;7.70;99.90;;;8.39;100.00;99742.53;5052982;28;20667;-65
2021/10/30 02:44:08;;;;;;;32.93;26.50;;;7.70;99.90;;;8.35;100.00;99730.59;5053131;28;20205;-65
2021/10/30 02:46:37;;;;;;;30.10;25.50;;;7.70;99.90;;;8.42;100.00;99727.88;5053258;28;20296;-65
2021/10/30 02:49:06;;;;;;;30.90;25.47;;;7.80;99.90;;;8.52;100.00;99734.38;5053529;28;20725;-64
2021/10/30 02:51:34;;;;;;;30.17;25.63;;;7.80;99.90;;;8.44;100.00;99731.16;5053196;28;20248;-65
2021/10/30 02:54:02;;;;;;;33.80;26.57;;;7.80;99.90;;;8.60;100.00;99730.63;5052654;28;20225;-65
2021/10/30 02:56:30;;;;;;;36.33;27.67;;;7.90;99.90;;;8.49;100.00;99732.16;5052943;28;20321;-65
2021/10/30 02:58:58;;;;;;;34.23;26.27;;;7.90;99.90;;;8.43;100.00;99733.03;5052926;28;20632;-65
2021/10/30 03:01:26;;;;;;;32.13;25.90;;;7.90;99.90;;;8.33;100.00;99734.53;5052767;28;20205;-65
2021/10/30 03:03:55;;;;;;;34.00;25.80;;;7.70;99.90;;;8.47;100.00;99736.09;5052530;28;20209;-66
2021/10/30 03:06:23;;;;;;;32.43;25.37;;;7.80;99.90;;;8.35;100.00;99737.81;5052602;28;20324;-65
2021/10/30 03:08:51;;;;;;;32.73;26.10;;;7.80;99.90;;;8.35;100.00;99737.81;5051417;28;20181;-66
2021/10/30 03:11:20;;;;;;;31.23;25.20;;;7.80;99.90;;;8.49;100.00;99736.69;5052769;28;20300;-66
2021/10/30 03:13:48;;;;;;;34.10;28.17;;;7.80;99.90;;;8.43;100.00;99738.41;5052848;28;20217;-64
2021/10/30 03:16:16;;;;;;;30.57;25.23;;;7.80;99.90;;;8.30;100.00;99734.97;5052597;28;20280;-64
2021/10/30 03:18:45;;;;;;;33.27;26.47;;;7.80;99.90;;;8.27;100.00;99724.66;5052562;28;20669;-65
2021/10/30 03:21:15;;;;;;;29.87;25.43;;;7.70;99.90;;;8.16;100.00;99734.19;5053613;28;20638;-65
2021/10/30 03:23:43;;;;;;;32.80;25.30;;;7.70;99.90;;;8.20;100.00;99729.22;5052134;28;20208;-65
2021/10/30 03:26:11;;;;;;;31.03;26.03;;;7.60;99.90;;;8.13;100.00;99731.09;5052734;28;20319;-65
2021/10/30 03:28:39;;;;;;;31.33;26.43;;;7.60;99.90;;;7.99;100.00;99726.84;5052211;28;20251;-65
2021/10/30 03:31:07;;;;;;;31.90;25.60;;;7.50;99.90;;;7.91;100.00;99721.72;5052130;28;20308;-65
2021/10/30 03:33:35;;;;;;;33.70;26.67;;;7.50;99.90;;;7.92;100.00;99718.81;5052352;28;20201;-65
2021/10/30 03:36:05;;;;;;;30.90;25.60;;;7.40;99.90;;;7.96;100.00;99720.06;5052405;28;20669;-65
2021/10/30 03:38:34;;;;;;;32.20;25.83;;;7.40;99.90;;;7.96;100.00;99721.91;5052106;28;20513;-64
2021/10/30 03:41:02;;;;;;;34.20;26.17;;;7.40;99.90;;;8.01;100.00;99722.09;5052225;28;20656;-65
2021/10/30 03:43:30;;;;;;;39.63;28.30;;;7.40;99.90;;;7.96;100.00;99722.75;5051843;28;20746;-65
2021/10/30 03:45:59;;;;;;;32.77;25.83;;;7.40;99.90;;;7.90;100.00;99710.16;5052099;28;20296;-66
2021/10/30 03:48:27;;;;;;;31.00;26.33;;;7.30;99.90;;;8.05;100.00;99705.34;5052213;28;20211;-66
2021/10/30 03:50:55;;;;;;;35.40;25.13;;;7.20;99.90;;;8.00;100.00;99704.38;5052102;28;20201;-65
2021/10/30 03:53:23;;;;;;;30.67;25.37;;;7.20;99.90;;;7.83;100.00;99698.63;5051352;28;20617;-64
2021/10/30 03:55:52;;;;;;;31.87;24.80;;;7.20;99.90;;;7.74;100.00;99702.63;5051932;28;20350;-65
2021/10/30 03:58:20;;;;;;;32.70;26.67;;;7.20;99.90;;;7.71;100.00;99707.59;5051840;28;20316;-65
2021/10/30 04:00:54;;;;;;;31.87;25.97;;;7.10;99.90;;;7.67;100.00;99701.00;5051796;28;20185;-63
2021/10/30 04:03:22;;;;;;;30.03;24.33;;;7.10;99.90;;;7.74;100.00;99701.78;5051750;28;20236;-64
2021/10/30 04:05:50;;;;;;;30.23;25.40;;;7.10;99.90;;;7.68;100.00;99697.28;5052017;28;20243;-65
2021/10/30 04:08:19;;;;;;;29.30;24.33;;;7.10;99.90;;;7.71;100.00;99699.53;5051528;28;20284;-66
2021/10/30 04:10:48;;;;;;;33.30;25.47;;;7.00;99.90;;;7.78;100.00;99698.47;5051951;28;20225;-64
2021/10/30 04:13:17;;;;;;;32.30;25.77;;;7.00;99.90;;;7.61;100.00;99691.94;5051699;28;20259;-65
2021/10/30 04:15:46;;;;;;;33.80;25.23;;;7.00;99.90;;;7.54;100.00;99691.16;5051303;28;20577;-64
2021/10/30 04:18:14;;;;;;;33.13;25.77;;;7.00;99.90;;;7.53;100.00;99697.53;5051399;28;20201;-65
2021/10/30 04:20:42;;;;;;;30.57;25.23;;;6.90;99.90;;;7.58;100.00;99691.56;5051490;28;20212;-64
2021/10/30 04:23:10;;;;;;;31.97;25.43;;;6.90;99.90;;;7.52;100.00;99695.06;5051212;28;20251;-65
2021/10/30 04:25:38;;;;;;;32.57;25.50;;;6.90;99.90;;;7.46;100.00;99694.03;5051689;28;20316;-65
2021/10/30 04:28:06;;;;;;;30.33;24.97;;;6.80;99.90;;;7.38;100.00;99686.25;5051464;28;20201;-65
2021/10/30 04:30:36;;;;;;;29.83;25.13;;;6.80;99.90;;;7.47;100.00;99700.22;5051124;28;20249;-65
2021/10/30 04:33:05;;;;;;;32.17;25.37;;;6.80;99.90;;;7.54;100.00;99695.69;5051327;28;20291;-65
2021/10/30 04:35:35;;;;;;;30.00;24.90;;;6.80;99.90;;;7.41;100.00;99700.03;5051250;28;20211;-66
2021/10/30 04:38:03;;;;;;;31.00;25.17;;;6.80;99.90;;;7.32;100.00;99701.28;5051346;28;20291;-64
2021/10/30 04:40:31;;;;;;;30.57;25.83;;;6.70;99.90;;;7.34;100.00;99698.41;5051450;28;20236;-65
2021/10/30 04:42:59;;;;;;;29.50;24.73;;;6.70;99.90;;;7.27;100.00;99687.72;5051479;28;20411;-65
2021/10/30 04:45:27;;;;;;;28.30;23.63;;;6.70;99.90;;;7.29;100.00;99682.97;5051443;28;20232;-66
2021/10/30 04:47:57;;;;;;;30.13;25.47;;;6.70;99.90;;;7.29;100.00;99682.13;5051708;28;20281;-64
2021/10/30 04:50:25;;;;;;;31.63;25.37;;;6.70;99.90;;;7.26;100.00;99685.25;5051545;28;20205;-65
2021/10/30 04:52:53;;;;;;;31.20;25.67;;;6.70;99.90;;;7.23;100.00;99683.00;5051093;28;20193;-65
2021/10/30 04:55:21;;;;;;;32.27;25.00;;;6.60;99.90;;;7.24;100.00;99679.25;5051608;28;20259;-65
2021/10/30 04:57:50;;;;;;;31.60;25.20;;;6.60;99.90;;;7.33;100.00;99672.66;5051572;28;20237;-65
2021/10/30 05:00:18;;;;;;;30.23;24.70;;;6.60;99.90;;;7.17;100.00;99681.97;5051336;28;20292;-64
2021/10/30 05:02:46;;;;;;;30.53;24.20;;;6.60;99.90;;;7.17;100.00;99676.59;5051235;28;20244;-65
2021/10/30 05:05:15;;;;;;;30.03;24.37;;;6.50;99.90;;;7.12;100.00;99676.41;5051533;28;20597;-63
2021/10/30 05:07:44;;;;;;;31.77;26.23;;;6.50;99.90;;;7.13;100.00;99672.72;5050741;28;20648;-64
2021/10/30 05:10:12;;;;;;;33.00;25.30;;;6.60;99.90;;;7.22;100.00;99682.16;5050985;28;20691;-65
2021/10/30 05:12:40;;;;;;;33.27;25.70;;;6.60;99.90;;;7.24;100.00;99674.75;5051387;28;20633;-65
2021/10/30 05:15:08;;;;;;;35.17;26.70;;;6.60;99.90;;;7.32;100.00;99671.81;5050913;28;20676;-64
2021/10/30 05:17:37;;;;;;;34.03;26.80;;;6.60;99.90;;;7.37;100.00;99663.97;5051123;28;20381;-64
2021/10/30 05:20:06;;;;;;;35.30;27.07;;;6.70;99.90;;;7.36;100.00;99662.34;5050922;28;20664;-63
2021/10/30 05:22:36;;;;;;;33.10;26.33;;;6.70;99.90;;;7.13;100.00;99647.78;5050642;28;20267;-64
2021/10/30 05:25:05;;;;;;;35.33;27.90;;;6.60;99.90;;;7.14;100.00;99644.06;5051159;28;20202;-65
2021/10/30 05:27:33;;;;;;;35.37;28.43;;;6.60;99.90;;;7.30;100.00;99638.25;5051188;28;20292;-65
2021/10/30 05:30:01;;;;;;;36.47;28.23;;;6.60;99.90;;;7.19;100.00;99641.56;5050796;28;20215;-65
2021/10/30 05:32:29;;;;;;;34.87;28.43;;;6.60;99.90;;;7.08;100.00;99644.91;5053942;28;20582;-64
2021/10/30 05:34:57;;;;;;;38.47;30.67;;;6.50;99.90;;;6.99;100.00;99640.81;5054618;28;20564;-66
2021/10/30 05:37:25;;;;;;;35.13;28.80;;;6.50;99.90;;;6.95;100.00;99643.06;5054436;28;20275;-65
2021/10/30 05:39:54;;;;;;;37.67;27.93;;;6.40;99.90;;;6.95;100.00;99636.91;5054529;28;20288;-66
2021/10/30 05:42:22;;;;;;;34.97;28.13;;;6.40;99.90;;;6.88;100.00;99626.19;5055403;28;20743;-64
2021/10/30 05:44:50;;;;;;;39.17;28.67;;;6.40;99.90;;;6.83;100.00;99626.00;5054593;28;20754;-66
2021/10/30 05:47:18;;;;;;;36.60;28.70;;;6.30;99.90;;;6.72;100.00;99632.00;5054475;28;20308;-65
2021/10/30 05:49:46;;;;;;;35.10;29.17;;;6.30;99.90;;;6.77;100.00;99634.88;5054119;28;20795;-64
2021/10/30 05:52:14;;;;;;;37.77;29.03;;;6.30;99.90;;;6.72;100.00;99634.69;5054084;28;20299;-65
2021/10/30 05:54:43;;;;;;;39.07;29.70;;;6.20;99.90;;;6.92;100.00;99630.13;5054408;28;20205;-65
2021/10/30 05:57:12;;;;;;;36.73;28.63;;;6.20;99.90;;;6.86;100.00;99630.13;5054458;28;20219;-67
2021/10/30 05:59:40;;;;;;;36.20;28.03;;;6.30;99.90;;;6.75;100.00;99630.78;5054149;28;20217;-65
2021/10/30 06:02:11;;;;;;;39.37;30.00;;;6.30;99.90;;;6.84;100.00;99635.69;5054138;28;20625;-65
2021/10/30 06:04:40;;;;;;;38.50;29.77;;;6.30;99.90;;;6.84;100.00;99629.50;5054177;28;20263;-65
2021/10/30 06:07:09;;;;;;;41.00;29.97;;;6.30;99.90;;;6.99;100.00;99622.06;5053227;28;20317;-66
2021/10/30 06:09:38;;;;;;;36.20;28.73;;;6.30;99.90;;;6.85;100.00;99626.63;5053803;28;20201;-65
2021/10/30 06:12:08;;;;;;;37.57;28.83;;;6.30;99.90;;;6.90;100.00;99624.13;5054392;28;20295;-64
2021/10/30 06:14:37;;;;;;;39.37;28.43;;;6.30;99.90;;;6.95;100.00;99624.34;5053766;28;20296;-65
2021/10/30 06:17:07;;;;;;;38.77;29.23;;;6.40;99.90;;;6.87;100.00;99624.56;5053617;28;20236;-66
2021/10/30 06:19:35;;;;;;;39.13;29.33;;;6.30;99.90;;;6.99;100.00;99622.91;5053897;28;20291;-65
2021/10/30 06:22:03;;;;;;;35.97;28.57;;;6.40;99.90;;;7.11;100.00;99629.25;5052834;28;20241;-65
2021/10/30 06:24:31;;;;;;;36.47;29.07;;;6.40;99.90;;;7.17;100.00;99620.38;5053184;28;20284;-66
2021/10/30 06:27:00;;;;;;;36.57;28.63;;;6.50;99.90;;;7.07;100.00;99614.63;5053676;28;20300;-64
2021/10/30 06:29:29;;;;;;;34.33;27.87;;;6.50;99.90;;;7.00;100.00;99621.06;5053394;28;20221;-65
2021/10/30 06:31:58;;;;;;;36.83;28.03;;;6.50;99.90;;;7.16;100.00;99624.09;5053129;28;20235;-66
2021/10/30 06:34:26;;;;;;;36.50;28.17;;;6.50;99.90;;;7.18;100.00;99618.50;5053386;28;20193;-65
2021/10/30 06:36:55;;;;;;;36.13;28.07;;;6.60;99.90;;;7.25;100.00;99617.47;5043642;28;20289;-66
2021/10/30 06:39:22;;;;;;;37.63;27.53;;;6.60;99.90;;;7.26;100.00;99611.06;5033379;28;20212;-68
2021/10/30 06:41:51;;;;;;;33.40;27.03;;;6.70;99.90;;;7.53;100.00;99616.31;5033021;28;20674;-65
2021/10/30 06:44:19;;;;;;;37.07;28.30;;;6.80;99.90;;;7.41;100.00;99606.25;5033311;28;20316;-65
2021/10/30 06:46:48;;;;;;;36.77;27.63;;;6.90;99.90;;;7.46;100.00;99600.25;5033237;28;20298;-67
2021/10/30 06:49:17;;;;;;;33.77;27.33;;;6.90;99.90;;;7.59;100.00;99599.38;5033408;28;20305;-65
2021/10/30 06:51:47;;;;;;;34.53;26.20;;;7.00;99.90;;;7.68;100.00;99598.91;5032540;28;20240;-65
2021/10/30 06:54:15;;;;;;;32.57;25.23;;;7.00;99.90;;;7.77;100.00;99603.00;5032923;28;20198;-65
2021/10/30 06:56:43;;;;;;;33.70;27.27;;;7.10;99.90;;;7.80;100.00;99596.34;5033281;28;20206;-67
2021/10/30 06:59:11;;;;;;;32.40;26.00;;;7.20;99.90;;;7.84;100.00;99600.25;5040761;28;20197;-65
2021/10/30 07:01:40;;;;;;;30.87;24.90;;;7.20;99.90;;;7.91;100.00;99593.00;5052727;28;20206;-65
2021/10/30 07:04:09;;;;;;;31.37;26.00;;;7.30;99.90;;;8.04;100.00;99588.38;5052762;28;20225;-65
2021/10/30 07:06:38;;;;;;;32.97;25.03;;;7.40;99.90;;;8.08;100.00;99588.75;5052384;28;20580;-64
2021/10/30 07:09:06;;;;;;;32.00;25.13;;;7.40;99.90;;;8.05;100.00;99587.31;5053087;28;20229;-65
2021/10/30 07:11:35;;;;;;;29.40;25.10;;;7.50;99.90;;;8.16;100.00;99583.13;5052884;28;20209;-65
2021/10/30 07:14:02;;;;;;;34.63;25.67;;;7.50;99.90;;;8.25;100.00;99584.53;5052698;28;20748;-65
2021/10/30 07:16:32;;;;;;;30.37;24.73;;;7.60;99.90;;;8.29;100.00;99589.25;5052854;28;20248;-65
2021/10/30 07:19:00;;;;;;;31.10;24.27;;;7.70;99.90;;;8.28;100.00;99587.59;5052761;28;20202;-66
2021/10/30 07:21:28;;;;;;;29.87;23.50;;;7.70;99.90;;;8.43;100.00;99580.03;5052215;28;20236;-65
2021/10/30 07:24:00;;;;;;;30.90;23.37;;;7.90;99.90;;;8.67;100.00;99573.00;5052159;28;20215;-65
2021/10/30 07:26:28;;;;;;;29.47;23.23;;;7.90;99.90;;;8.63;100.00;99575.31;5052186;28;20629;-65
2021/10/30 07:28:56;;;;;;;27.37;23.90;;;8.00;99.90;;;8.67;100.00;99578.38;5052426;28;20664;-65
2021/10/30 07:31:24;;;;;;;30.07;24.13;;;8.10;99.90;;;8.99;100.00;99574.53;5052257;28;20576;-64
2021/10/30 07:33:52;;;;;;;29.33;23.77;;;8.20;99.90;;;9.26;100.00;99575.03;5052524;28;20315;-64
2021/10/30 07:36:20;;;;;;;26.27;22.47;;;8.40;99.90;;;9.11;100.00;99572.75;5052075;28;20604;-64
2021/10/30 07:38:48;;;;;;;27.40;22.63;;;8.40;99.90;;;9.11;100.00;99570.06;5052110;28;20219;-63
2021/10/30 07:41:18;;;;;;;31.97;25.13;;;8.50;99.90;;;9.16;100.00;99567.50;5052164;28;20209;-63
2021/10/30 07:43:46;;;;;;;26.83;23.37;;;8.50;99.90;;;9.42;100.00;99558.31;5052340;28;20186;-64
2021/10/30 07:46:14;;;;;;;29.83;23.87;;;8.60;99.90;;;9.65;100.00;99543.09;5052025;28;20275;-62
2021/10/30 07:48:43;;;;;;;27.00;22.47;;;8.80;99.90;;;9.88;100.00;99541.50;5052350;28;20288;-62
2021/10/30 07:51:11;;;;;;;28.27;22.90;;;8.90;99.90;;;9.84;100.00;99543.84;5052068;28;20677;-64
2021/10/30 07:53:39;;;;;;;29.83;23.50;;;9.10;99.90;;;9.92;100.00;99553.44;5051208;28;20645;-65
2021/10/30 07:56:07;;;;;;;26.47;21.40;;;9.10;99.90;;;10.01;100.00;99546.69;5052900;28;20221;-70
2021/10/30 07:58:36;;;;;;;26.53;22.00;;;9.20;99.90;;;10.38;100.00;99549.00;5052719;28;20277;-69
2021/10/30 08:01:04;;;;;;;27.00;22.80;;;9.40;99.90;;;10.72;100.00;99548.16;5052078;28;20201;-70
2021/10/30 08:03:32;;;;;;;25.80;21.53;;;9.70;99.90;;;10.62;100.00;99550.63;5052725;28;20212;-71
2021/10/30 08:06:01;;;;;;;26.10;21.70;;;9.80;99.90;;;10.58;100.00;99548.63;5052673;28;20282;-70
2021/10/30 08:08:30;;;;;;;24.67;21.00;;;9.80;99.90;;;10.54;100.00;99553.66;5052146;28;20225;-71
2021/10/30 08:10:58;;;;;;;25.40;21.57;;;9.90;99.90;;;10.60;100.00;99546.53;5052626;28;20497;-71
2021/10/30 08:13:28;;;;;;;24.57;21.40;;;9.90;99.90;;;10.65;100.00;99546.66;5055154;28;20205;-70
2021/10/30 08:15:57;;;;;;;25.33;19.73;;;10.10;99.90;;;10.63;100.00;99537.97;5054640;28;20284;-71
2021/10/30 08:18:26;;;;;;;25.57;21.80;;;10.00;99.90;;;10.66;100.00;99540.19;5052915;28;20263;-71
2021/10/30 08:20:56;;;;;;;27.90;21.80;;;10.00;99.90;;;10.78;99.68;99543.69;5052440;28;20181;-70
2021/10/30 08:23:25;;;;;;;27.60;22.67;;;10.00;99.90;;;10.81;99.06;99525.19;5052652;28;20204;-69
2021/10/30 08:25:52;;;;;;;27.80;22.20;;;10.10;99.90;;;11.03;98.32;99514.59;5052414;28;20317;-69
2021/10/30 08:28:21;;;;;;;25.50;20.93;;;10.20;99.90;;;11.04;98.22;99511.66;5052638;28;20244;-69
2021/10/30 08:30:49;;;;;;;23.27;19.77;;;10.30;99.90;;;11.14;97.51;99504.84;5051405;28;20687;-71
2021/10/30 08:33:18;;;;;;;24.83;21.07;;;10.30;99.90;;;11.20;96.97;99496.63;5052699;28;20197;-69
2021/10/30 08:35:46;;;;;;;25.27;21.13;;;10.40;99.90;;;11.18;97.97;99479.06;5052158;28;20288;-70
2021/10/30 08:38:15;;;;;;;23.07;20.57;;;10.40;99.90;;;11.25;98.11;99475.16;5052023;28;20605;-69
2021/10/30 08:40:44;;;;;;;25.83;21.20;;;10.50;99.90;;;11.30;97.02;99471.75;5052629;28;20656;-71
2021/10/30 08:43:21;;;;;;;24.77;20.73;;;10.50;99.90;;;11.45;95.08;99474.72;5053949;28;20245;-70
2021/10/30 08:45:50;;;;;;;25.87;21.00;;;10.60;99.90;;;11.55;94.81;99466.81;5052216;28;20209;-69
2021/10/30 08:48:22;;;;;;;25.77;21.10;;;10.70;99.90;;;11.50;95.44;99467.53;5052288;28;20280;-70
2021/10/30 08:50:52;;;;;;;27.10;21.43;;;10.70;99.90;;;11.64;95.50;99470.75;5053521;28;20288;-68
2021/10/30 08:53:20;;;;;;;23.93;20.67;;;10.80;99.90;;;11.71;95.74;99464.16;5051685;28;20312;-70
2021/10/30 08:55:49;;;;;;;25.20;21.40;;;10.80;99.90;;;11.90;93.97;99460.19;5053030;28;20680;-70
2021/10/30 08:58:20;;;;;;;21.27;18.97;;;11.00;99.90;;;11.91;94.79;99459.09;5052039;28;20295;-69
2021/10/30 09:00:51;;;;;;;25.80;20.83;;;11.00;99.90;;;12.13;92.52;99462.69;5052779;28;20285;-70
2021/10/30 09:03:23;;;;;;;25.40;20.40;;;11.20;99.90;;;12.13;92.80;99467.28;5052502;28;20181;-70
2021/10/30 09:05:54;;;;;;;23.53;20.60;;;11.20;99.90;;;12.19;92.60;99455.50;5052545;28;20408;-70
2021/10/30 09:08:26;;;;;;;23.57;21.03;;;11.30;99.90;;;12.31;91.03;99450.81;5056394;28;20273;-70
2021/10/30 09:10:57;;;;;;;25.10;20.53;;;11.40;99.90;;;12.33;92.07;99434.38;5055634;28;20182;-70
2021/10/30 09:13:30;;;;;;;22.97;20.37;;;11.50;99.90;;;12.42;91.61;99427.44;5055288;28;20614;-70
2021/10/30 09:16:01;;;;;;;25.97;20.57;;;11.60;99.90;;;12.56;90.35;99421.44;5054935;28;20228;-69
2021/10/30 09:18:33;;;;;;;25.37;20.50;;;11.60;99.90;;;12.58;89.96;99415.78;5056084;28;20185;-69
2021/10/30 09:21:15;;;;;;;22.87;20.07;;;11.70;99.90;;;12.56;90.36;99402.53;5055468;28;20641;-71
2021/10/30 09:23:47;;;;;;;26.13;20.80;;;11.70;99.90;;;12.80;89.56;99392.28;5056084;28;20186;-69
2021/10/30 09:26:21;;;;;;;23.87;20.63;;;11.80;99.90;;;12.86;88.61;99392.09;5055269;28;20245;-69
2021/10/30 09:28:54;;;;;;;23.73;20.97;;;11.90;99.90;;;12.92;88.13;99391.06;5055098;28;20201;-71
2021/10/30 09:31:24;;;;;;;24.63;19.77;;;12.00;99.90;;;13.04;87.52;99390.97;5055035;28;20282;-69
2021/10/30 09:33:56;;;;;;;25.17;21.37;;;12.00;99.90;;;13.04;87.20;99393.69;5054798;28;20276;-69
2021/10/30 09:36:29;;;;;;;25.13;20.50;;;12.10;99.90;;;12.98;87.83;99405.47;5054932;28;20264;-70
2021/10/30 09:39:05;;;;;;;25.23;21.27;;;12.20;99.90;;;13.13;87.69;99402.94;5056124;28;20221;-70
2021/10/30 09:41:36;;;;;;;24.47;20.40;;;12.20;99.90;;;13.21;87.68;99403.31;5058827;28;20643;-69
2021/10/30 09:44:07;;;;;;;24.87;21.20;;;12.30;99.90;;;13.31;87.46;99410.69;5060496;28;20221;-68
2021/10/30 09:46:39;;;;;;;22.33;19.93;;;12.30;99.90;;;13.36;87.02;99410.78;5056253;28;20225;-68
2021/10/30 09:49:18;;;;;;;21.87;19.50;;;12.40;99.90;;;13.48;86.92;99412.22;5055545;28;20201;-68
2021/10/30 09:51:51;;;;;;;22.77;19.97;;;12.50;99.90;;;13.62;86.05;99412.63;5055897;28;20273;-70
2021/10/30 09:54:32;;;;;;;22.17;18.67;;;12.60;99.90;;;13.69;84.95;99410.53;5056786;28;20273;-69
2021/10/30 09:57:01;;;;;;;22.20;19.53;;;12.70;99.90;;;13.78;83.39;99414.41;5057030;28;20185;-71
2021/10/30 09:59:36;;;;;;;22.53;20.03;;;12.80;99.90;;;13.81;83.01;99411.16;5056454;28;20256;-68
2021/10/30 10:02:06;;;;;;;21.50;19.00;;;12.80;99.90;;;13.90;82.24;99397.97;5055902;28;20264;-70
2021/10/30 10:04:39;;;;;;;22.30;19.33;;;12.90;99.90;;;14.01;82.02;99395.06;5055733;28;20284;-69
2021/10/30 10:07:08;;;;;;;21.43;18.40;;;13.00;99.90;;;14.11;81.38;99388.91;5054867;28;20229;-68
2021/10/30 10:09:37;;;;;;;22.48;20.10;;;13.10;99.90;;;14.23;80.81;99387.63;5055720;28;20280;-69
2021/10/30 10:12:07;;;;;;;20.33;18.23;;;13.20;99.90;;;14.31;80.28;99387.16;5056029;28;20308;-69
2021/10/30 10:14:37;;;;;;;21.87;19.53;;;13.30;99.90;;;14.37;78.82;99388.00;5055670;28;20232;-69
2021/10/30 10:17:07;;;;;;;22.73;20.15;;;13.40;99.90;;;14.41;77.78;99384.50;5055751;28;20731;-68